createdAt,value
2023-01-19T00:00:12.324Z,55.94
2023-01-19T00:01:14.090Z,55.90
2023-01-19T00:02:15.871Z,55.85
2023-01-19T00:03:17.655Z,55.86
2023-01-19T00:04:19.471Z,55.91
2023-01-19T00:05:21.301Z,55.94
2023-01-19T00:06:23.208Z,55.96
2023-01-19T00:07:24.983Z,55.96
2023-01-19T00:08:26.782Z,55.96
2023-01-19T00:09:28.584Z,55.98
2023-01-19T00:10:30.602Z,56.00
2023-01-19T00:11:32.386Z,55.99
2023-01-19T00:12:34.188Z,56.01
2023-01-19T00:13:35.982Z,56.03
2023-01-19T00:14:37.799Z,56.03
2023-01-19T00:15:39.629Z,56.07
2023-01-19T00:16:41.517Z,56.11
2023-01-19T00:17:43.316Z,56.07
2023-01-19T00:18:45.118Z,56.08
2023-01-19T00:19:47.035Z,56.13
2023-01-19T00:20:48.977Z,56.22
2023-01-19T00:21:50.766Z,56.25
2023-01-19T00:22:52.616Z,56.26
2023-01-19T00:23:54.534Z,56.23
2023-01-19T00:24:56.324Z,56.22
2023-01-19T00:25:58.173Z,56.29
2023-01-19T00:27:00.261Z,56.31
2023-01-19T00:28:02.157Z,56.32
2023-01-19T00:29:03.954Z,56.37
2023-01-19T00:30:05.847Z,56.36
2023-01-19T00:31:07.705Z,56.40
2023-01-19T00:32:09.483Z,56.37
2023-01-19T00:33:11.293Z,56.33
2023-01-19T00:34:13.198Z,56.28
2023-01-19T00:35:15.004Z,56.25
2023-01-19T00:36:17.025Z,56.17
2023-01-19T00:37:18.817Z,56.12
2023-01-19T00:38:20.816Z,56.06
2023-01-19T00:39:22.597Z,56.10
2023-01-19T00:40:24.503Z,56.11
2023-01-19T00:41:26.333Z,56.18
2023-01-19T00:42:28.120Z,56.18
2023-01-19T00:43:29.903Z,56.15
2023-01-19T00:44:31.702Z,55.98
2023-01-19T00:45:33.547Z,55.97
2023-01-19T00:46:35.532Z,55.98
2023-01-19T00:47:37.321Z,56.01
2023-01-19T00:48:39.132Z,55.97
2023-01-19T00:49:40.928Z,55.94
2023-01-19T00:50:42.932Z,55.92
2023-01-19T00:51:44.747Z,55.90
2023-01-19T00:52:46.537Z,55.82
2023-01-19T00:53:48.389Z,55.80
2023-01-19T00:54:50.192Z,55.80
2023-01-19T00:55:52.025Z,55.82
2023-01-19T00:56:53.936Z,55.86
2023-01-19T00:57:55.743Z,55.87
2023-01-19T00:58:57.557Z,55.84
2023-01-19T00:59:59.334Z,55.79
2023-01-19T01:01:01.225Z,55.77
2023-01-19T01:02:03.374Z,55.82
2023-01-19T01:03:05.595Z,55.82
2023-01-19T01:04:07.360Z,55.78
2023-01-19T01:05:09.157Z,55.70
2023-01-19T01:06:11.357Z,55.69
2023-01-19T01:07:14.156Z,55.72
2023-01-19T01:08:15.976Z,55.77
2023-01-19T01:09:17.945Z,55.77
2023-01-19T01:10:19.848Z,55.76
2023-01-19T01:11:21.635Z,55.76
2023-01-19T01:12:23.461Z,55.75
2023-01-19T01:13:27.468Z,55.76
2023-01-19T01:14:28.868Z,55.67
2023-01-19T01:15:30.648Z,55.67
2023-01-19T01:16:32.704Z,55.70
2023-01-19T01:17:34.596Z,55.71
2023-01-19T01:18:36.385Z,55.67
2023-01-19T01:19:38.176Z,55.60
2023-01-19T01:20:40.096Z,55.50
2023-01-19T01:21:41.878Z,55.51
2023-01-19T01:22:43.708Z,55.48
2023-01-19T01:23:45.493Z,55.46
2023-01-19T01:24:47.340Z,55.35
2023-01-19T01:25:49.133Z,55.32
2023-01-19T01:26:51.023Z,55.35
2023-01-19T01:27:52.837Z,55.42
2023-01-19T01:28:54.654Z,55.44
2023-01-19T01:29:56.487Z,55.34
2023-01-19T01:30:58.308Z,55.32
2023-01-19T01:32:00.125Z,55.34
2023-01-19T01:33:02.338Z,55.36
2023-01-19T01:34:04.311Z,55.27
2023-01-19T01:35:06.093Z,55.23
2023-01-19T01:36:08.618Z,55.13
2023-01-19T01:37:10.420Z,55.09
2023-01-19T01:38:12.287Z,55.09
2023-01-19T01:39:14.094Z,55.18
2023-01-19T01:40:16.146Z,55.18
2023-01-19T01:41:17.937Z,55.12
2023-01-19T01:42:21.565Z,55.13
2023-01-19T01:43:23.423Z,55.15
2023-01-19T01:44:25.302Z,55.13
2023-01-19T01:45:27.094Z,55.11
2023-01-19T01:46:29.012Z,55.02
2023-01-19T01:47:30.827Z,55.01
2023-01-19T01:48:32.692Z,55.06
2023-01-19T01:49:34.500Z,55.03
2023-01-19T01:50:36.423Z,55.07
2023-01-19T01:51:38.244Z,55.00
2023-01-19T01:52:40.057Z,55.05
2023-01-19T01:53:42.030Z,55.06
2023-01-19T01:54:43.841Z,55.15
2023-01-19T01:55:45.679Z,55.15
2023-01-19T01:56:47.614Z,55.11
2023-01-19T01:57:49.423Z,55.00
2023-01-19T01:58:51.275Z,55.05
2023-01-19T01:59:53.095Z,55.08
2023-01-19T02:00:55.419Z,55.12
2023-01-19T02:01:57.350Z,55.08
2023-01-19T02:02:59.974Z,55.06
2023-01-19T02:04:02.171Z,55.12
2023-01-19T02:05:03.991Z,55.14
2023-01-19T02:06:05.995Z,55.11
2023-01-19T02:07:07.920Z,54.99
2023-01-19T02:08:09.742Z,54.92
2023-01-19T02:09:11.678Z,54.95
2023-01-19T02:10:13.715Z,55.04
2023-01-19T02:11:15.650Z,55.04
2023-01-19T02:12:17.475Z,54.98
2023-01-19T02:13:19.282Z,55.01
2023-01-19T02:14:21.122Z,55.05
2023-01-19T02:15:22.931Z,55.06
2023-01-19T02:16:24.964Z,55.11
2023-01-19T02:17:26.764Z,55.11
2023-01-19T02:18:28.588Z,55.13
2023-01-19T02:19:30.424Z,55.17
2023-01-19T02:20:32.353Z,55.13
2023-01-19T02:21:34.161Z,55.16
2023-01-19T02:22:35.981Z,55.14
2023-01-19T02:23:37.781Z,55.16
2023-01-19T02:24:39.648Z,55.15
2023-01-19T02:25:41.476Z,55.18
2023-01-19T02:26:43.408Z,55.20
2023-01-19T02:27:45.235Z,55.17
2023-01-19T02:28:47.046Z,55.15
2023-01-19T02:29:48.907Z,55.14
2023-01-19T02:30:51.032Z,55.17
2023-01-19T02:31:52.859Z,55.21
2023-01-19T02:32:54.683Z,55.21
2023-01-19T02:33:56.503Z,55.15
2023-01-19T02:34:58.360Z,55.18
2023-01-19T02:36:00.183Z,55.21
2023-01-19T02:37:02.013Z,55.14
2023-01-19T02:38:03.806Z,55.05
2023-01-19T02:39:05.626Z,55.04
2023-01-19T02:40:08.296Z,55.01
2023-01-19T02:41:10.101Z,55.01
2023-01-19T02:42:12.179Z,55.05
2023-01-19T02:43:13.986Z,54.94
2023-01-19T02:44:15.800Z,54.86
2023-01-19T02:45:17.654Z,54.81
2023-01-19T02:46:19.622Z,54.80
2023-01-19T02:47:21.488Z,54.75
2023-01-19T02:48:23.309Z,54.74
2023-01-19T02:49:25.120Z,54.74
2023-01-19T02:50:27.091Z,54.76
2023-01-19T02:51:28.904Z,54.71
2023-01-19T02:52:30.916Z,54.67
2023-01-19T02:53:32.748Z,54.64
2023-01-19T02:54:34.554Z,54.59
2023-01-19T02:55:36.410Z,54.51
2023-01-19T02:56:38.344Z,54.46
2023-01-19T02:57:40.236Z,54.45
2023-01-19T02:58:42.051Z,54.45
2023-01-19T02:59:43.860Z,54.43
2023-01-19T03:00:45.810Z,54.36
2023-01-19T03:01:47.743Z,54.30
2023-01-19T03:02:49.740Z,54.32
2023-01-19T03:03:51.567Z,54.36
2023-01-19T03:04:53.388Z,54.36
2023-01-19T03:05:55.249Z,54.32
2023-01-19T03:06:57.167Z,54.31
2023-01-19T03:07:59.050Z,54.32
2023-01-19T03:09:00.883Z,54.32
2023-01-19T03:10:02.808Z,54.24
2023-01-19T03:11:04.654Z,54.19
2023-01-19T03:12:06.477Z,54.28
2023-01-19T03:13:08.306Z,54.22
2023-01-19T03:14:10.112Z,54.20
2023-01-19T03:15:11.927Z,54.10
2023-01-19T03:16:14.073Z,54.06
2023-01-19T03:17:16.007Z,54.04
2023-01-19T03:18:17.821Z,54.04
2023-01-19T03:19:19.655Z,53.99
2023-01-19T03:20:21.560Z,53.99
2023-01-19T03:21:23.413Z,54.03
2023-01-19T03:22:25.237Z,54.05
2023-01-19T03:23:27.059Z,54.05
2023-01-19T03:24:28.886Z,54.10
2023-01-19T03:25:30.708Z,54.17
2023-01-19T03:26:32.659Z,54.11
2023-01-19T03:27:34.479Z,54.14
2023-01-19T03:28:36.313Z,54.11
2023-01-19T03:29:38.162Z,54.14
2023-01-19T03:30:40.061Z,54.18
2023-01-19T03:31:41.880Z,54.22
2023-01-19T03:32:43.703Z,54.19
2023-01-19T03:33:45.509Z,54.20
2023-01-19T03:34:47.325Z,54.19
2023-01-19T03:35:49.147Z,54.19
2023-01-19T03:36:51.117Z,54.18
2023-01-19T03:37:52.913Z,54.13
2023-01-19T03:38:54.728Z,54.11
2023-01-19T03:39:56.527Z,54.08
2023-01-19T03:40:58.512Z,54.04
2023-01-19T03:42:00.338Z,54.03
2023-01-19T03:43:02.563Z,54.00
2023-01-19T03:44:04.690Z,53.97
2023-01-19T03:45:06.484Z,54.03
2023-01-19T03:46:08.529Z,54.04
2023-01-19T03:47:10.294Z,54.03
2023-01-19T03:48:12.087Z,54.08
2023-01-19T03:49:13.863Z,54.15
2023-01-19T03:50:15.777Z,54.13
2023-01-19T03:51:17.572Z,54.12
2023-01-19T03:52:19.403Z,54.11
2023-01-19T03:53:21.198Z,54.09
2023-01-19T03:54:22.995Z,54.09
2023-01-19T03:55:24.786Z,54.05
2023-01-19T03:56:27.193Z,54.03
2023-01-19T03:57:29.037Z,53.99
2023-01-19T03:58:30.822Z,53.97
2023-01-19T03:59:33.003Z,53.96
2023-01-19T04:00:34.895Z,53.98
2023-01-19T04:01:36.773Z,53.98
2023-01-19T04:02:38.629Z,54.00
2023-01-19T04:03:40.493Z,54.03
2023-01-19T04:04:42.290Z,54.02
2023-01-19T04:05:44.085Z,54.02
2023-01-19T04:06:45.976Z,53.98
2023-01-19T04:07:47.821Z,53.94
2023-01-19T04:08:49.625Z,53.99
2023-01-19T04:09:51.418Z,53.99
2023-01-19T04:10:53.447Z,54.00
2023-01-19T04:11:55.263Z,54.07
2023-01-19T04:12:57.170Z,54.05
2023-01-19T04:13:59.067Z,54.06
2023-01-19T04:15:00.871Z,54.06
2023-01-19T04:16:02.902Z,54.06
2023-01-19T04:17:04.764Z,54.13
2023-01-19T04:18:06.607Z,54.15
2023-01-19T04:19:08.404Z,54.12
2023-01-19T04:20:10.406Z,54.15
2023-01-19T04:21:12.192Z,54.14
2023-01-19T04:22:13.984Z,54.15
2023-01-19T04:23:15.827Z,54.12
2023-01-19T04:24:17.634Z,54.09
2023-01-19T04:25:19.417Z,54.08
2023-01-19T04:26:21.314Z,54.11
2023-01-19T04:27:23.149Z,54.02
2023-01-19T04:28:24.981Z,54.04
2023-01-19T04:29:26.763Z,54.10
2023-01-19T04:30:28.586Z,54.07
2023-01-19T04:31:30.440Z,54.09
2023-01-19T04:32:32.263Z,54.18
2023-01-19T04:33:34.104Z,54.19
2023-01-19T04:34:35.898Z,54.22
2023-01-19T04:35:37.684Z,54.22
2023-01-19T04:36:39.481Z,54.22
2023-01-19T04:37:41.277Z,54.21
2023-01-19T04:38:43.111Z,54.23
2023-01-19T04:39:44.895Z,54.18
2023-01-19T04:40:46.900Z,54.26
2023-01-19T04:41:48.708Z,54.23
2023-01-19T04:42:50.492Z,54.28
2023-01-19T04:43:52.318Z,54.31
2023-01-19T04:44:54.109Z,54.24
2023-01-19T04:45:55.971Z,54.23
2023-01-19T04:46:57.767Z,54.25
2023-01-19T04:47:59.564Z,54.25
2023-01-19T04:49:01.417Z,54.28
2023-01-19T04:50:03.201Z,54.19
2023-01-19T04:51:05.027Z,54.20
2023-01-19T04:52:06.805Z,54.22
2023-01-19T04:53:08.616Z,54.19
2023-01-19T04:54:10.446Z,54.24
2023-01-19T04:55:12.258Z,54.21
2023-01-19T04:56:14.151Z,54.21
2023-01-19T04:57:18.309Z,54.32
2023-01-19T04:58:20.134Z,54.34
2023-01-19T04:59:22.080Z,54.28
2023-01-19T05:00:23.979Z,54.22
2023-01-19T05:01:25.937Z,54.22
2023-01-19T05:02:27.770Z,54.20
2023-01-19T05:03:29.623Z,54.29
2023-01-19T05:04:31.399Z,54.27
2023-01-19T05:05:33.194Z,54.31
2023-01-19T05:06:35.000Z,54.31
2023-01-19T05:07:36.804Z,54.28
2023-01-19T05:08:38.597Z,54.26
2023-01-19T05:09:40.430Z,54.29
2023-01-19T05:10:42.329Z,54.31
2023-01-19T05:11:44.135Z,54.37
2023-01-19T05:12:45.914Z,54.35
2023-01-19T05:13:48.211Z,54.26
2023-01-19T05:14:50.977Z,54.18
2023-01-19T05:15:52.767Z,54.20
2023-01-19T05:16:54.661Z,54.15
2023-01-19T05:17:56.452Z,54.22
2023-01-19T05:18:58.248Z,54.27
2023-01-19T05:20:00.094Z,54.25
2023-01-19T05:21:01.845Z,54.33
2023-01-19T05:22:03.636Z,54.24
2023-01-19T05:23:05.441Z,54.21
2023-01-19T05:24:07.246Z,54.21
2023-01-19T05:25:09.084Z,54.25
2023-01-19T05:26:11.295Z,54.27
2023-01-19T05:27:13.085Z,54.30
2023-01-19T05:28:14.898Z,54.26
2023-01-19T05:29:16.687Z,54.17
2023-01-19T05:30:18.620Z,54.16
2023-01-19T05:31:20.526Z,54.11
2023-01-19T05:32:22.395Z,54.11
2023-01-19T05:33:24.207Z,54.12
2023-01-19T05:34:25.997Z,54.18
2023-01-19T05:35:35.673Z,54.18
2023-01-19T05:36:32.046Z,54.20
2023-01-19T05:37:34.368Z,54.19
2023-01-19T05:38:36.330Z,54.20
2023-01-19T05:39:38.078Z,54.17
2023-01-19T05:40:39.932Z,54.17
2023-01-19T05:41:41.701Z,54.22
2023-01-19T05:42:43.508Z,54.13
2023-01-19T05:43:45.291Z,54.08
2023-01-19T05:44:47.105Z,54.08
2023-01-19T05:45:48.932Z,54.09
2023-01-19T05:46:50.852Z,54.16
2023-01-19T05:47:53.713Z,54.12
2023-01-19T05:48:55.511Z,54.09
2023-01-19T05:49:57.344Z,54.13
2023-01-19T05:50:59.437Z,54.13
2023-01-19T05:52:01.228Z,54.07
2023-01-19T05:53:03.601Z,53.94
2023-01-19T05:54:05.622Z,53.88
2023-01-19T05:55:07.431Z,53.87
2023-01-19T05:56:09.715Z,53.89
2023-01-19T05:57:11.540Z,53.81
2023-01-19T05:58:13.340Z,53.77
2023-01-19T05:59:15.205Z,53.78
2023-01-19T06:00:17.124Z,53.76
2023-01-19T06:01:19.170Z,53.72
2023-01-19T06:02:21.362Z,53.69
2023-01-19T06:03:23.381Z,53.78
2023-01-19T06:04:25.203Z,53.79
2023-01-19T06:05:27.029Z,53.70
2023-01-19T06:06:28.905Z,53.68
2023-01-19T06:07:30.711Z,53.61
2023-01-19T06:08:32.543Z,53.53
2023-01-19T06:09:34.351Z,53.45
2023-01-19T06:10:36.381Z,53.35
2023-01-19T06:11:38.238Z,53.32
2023-01-19T06:12:40.062Z,53.32
2023-01-19T06:13:42.257Z,53.27
2023-01-19T06:14:44.150Z,53.30
2023-01-19T06:15:45.981Z,53.39
2023-01-19T06:16:48.110Z,53.35
2023-01-19T06:17:50.041Z,53.26
2023-01-19T06:18:51.946Z,53.20
2023-01-19T06:19:53.775Z,53.20
2023-01-19T06:20:56.093Z,53.21
2023-01-19T06:21:57.944Z,53.21
2023-01-19T06:23:00.196Z,53.25
2023-01-19T06:24:02.204Z,53.19
2023-01-19T06:25:04.029Z,53.19
2023-01-19T06:26:06.039Z,53.17
2023-01-19T06:27:07.897Z,53.11
2023-01-19T06:28:09.814Z,53.10
2023-01-19T06:29:11.614Z,53.08
2023-01-19T06:30:13.559Z,52.95
2023-01-19T06:31:15.675Z,52.96
2023-01-19T06:32:17.593Z,53.00
2023-01-19T06:33:19.418Z,53.02
2023-01-19T06:34:21.406Z,52.76
2023-01-19T06:35:23.215Z,52.76
2023-01-19T06:36:25.145Z,52.74
2023-01-19T06:37:27.039Z,52.78
2023-01-19T06:38:28.844Z,52.79
2023-01-19T06:39:30.774Z,52.72
2023-01-19T06:40:32.719Z,52.70
2023-01-19T06:41:34.536Z,52.65
2023-01-19T06:42:36.597Z,52.64
2023-01-19T06:43:38.375Z,52.71
2023-01-19T06:44:40.215Z,52.72
2023-01-19T06:45:42.922Z,52.79
2023-01-19T06:46:45.757Z,52.78
2023-01-19T06:47:47.673Z,52.84
2023-01-19T06:48:49.509Z,52.88
2023-01-19T06:49:51.319Z,52.89
2023-01-19T06:50:53.226Z,52.91
2023-01-19T06:51:55.057Z,52.82
2023-01-19T06:52:56.927Z,52.71
2023-01-19T06:53:58.744Z,52.70
2023-01-19T06:55:00.577Z,52.77
2023-01-19T06:56:03.252Z,52.77
2023-01-19T06:57:06.102Z,52.75
2023-01-19T06:58:07.980Z,52.68
2023-01-19T06:59:09.826Z,52.71
2023-01-19T07:00:12.025Z,52.74
2023-01-19T07:01:13.969Z,52.70
2023-01-19T07:02:26.570Z,52.67
2023-01-19T07:03:19.595Z,52.74
2023-01-19T07:04:21.461Z,52.72
2023-01-19T07:05:23.305Z,52.75
2023-01-19T07:06:25.201Z,52.70
2023-01-19T07:07:27.021Z,52.71
2023-01-19T07:08:28.872Z,52.64
2023-01-19T07:09:30.697Z,52.58
2023-01-19T07:11:26.139Z,52.59
2023-01-19T07:11:36.345Z,52.70
2023-01-19T07:12:38.284Z,52.70
2023-01-19T07:13:40.201Z,52.70
2023-01-19T07:14:42.330Z,52.69
2023-01-19T07:15:44.148Z,52.70
2023-01-19T07:16:46.170Z,52.75
2023-01-19T07:17:47.970Z,52.73
2023-01-19T07:18:49.886Z,52.59
2023-01-19T07:19:51.774Z,52.58
2023-01-19T07:20:53.827Z,52.60
2023-01-19T07:21:55.644Z,52.70
2023-01-19T07:22:57.480Z,52.71
2023-01-19T07:23:59.389Z,52.67
2023-01-19T07:25:01.390Z,52.63
2023-01-19T07:26:03.192Z,52.47
2023-01-19T07:27:05.031Z,52.53
2023-01-19T07:28:06.858Z,52.52
2023-01-19T07:29:08.819Z,52.55
2023-01-19T07:30:11.235Z,52.54
2023-01-19T07:31:13.126Z,52.61
2023-01-19T07:32:15.036Z,52.66
2023-01-19T07:33:16.857Z,52.77
2023-01-19T07:34:18.696Z,52.64
2023-01-19T07:35:20.613Z,52.56
2023-01-19T07:36:22.582Z,52.67
2023-01-19T07:37:24.429Z,52.67
2023-01-19T07:38:26.227Z,52.38
2023-01-19T07:39:28.289Z,52.43
2023-01-19T07:40:30.336Z,52.41
2023-01-19T07:41:32.226Z,52.52
2023-01-19T07:42:34.076Z,52.53
2023-01-19T07:43:35.909Z,52.52
2023-01-19T07:44:37.748Z,52.44
2023-01-19T07:45:39.584Z,52.36
2023-01-19T07:46:41.488Z,52.38
2023-01-19T07:47:43.424Z,52.46
2023-01-19T07:48:45.225Z,52.53
2023-01-19T07:49:47.092Z,52.58
2023-01-19T07:50:49.260Z,52.57
2023-01-19T07:51:51.136Z,52.52
2023-01-19T07:52:52.956Z,52.59
2023-01-19T07:53:54.792Z,52.64
2023-01-19T07:54:56.665Z,52.66
2023-01-19T07:55:58.486Z,52.66
2023-01-19T07:57:00.395Z,52.60
2023-01-19T07:58:02.218Z,52.57
2023-01-19T07:59:04.069Z,52.56
2023-01-19T08:00:06.164Z,52.52
2023-01-19T08:01:08.042Z,52.44
2023-01-19T08:02:10.015Z,52.46
2023-01-19T08:03:11.896Z,52.49
2023-01-19T08:04:13.775Z,52.47
2023-01-19T08:05:15.651Z,52.47
2023-01-19T08:06:17.645Z,52.42
2023-01-19T08:07:20.602Z,52.26
2023-01-19T08:08:22.435Z,52.20
2023-01-19T08:09:24.232Z,52.25
2023-01-19T08:10:26.162Z,52.19
2023-01-19T08:11:27.962Z,52.20
2023-01-19T08:12:29.754Z,52.23
2023-01-19T08:13:31.548Z,52.18
2023-01-19T08:14:33.368Z,52.23
2023-01-19T08:15:35.212Z,52.20
2023-01-19T08:16:37.193Z,52.15
2023-01-19T08:17:38.994Z,52.18
2023-01-19T08:18:40.779Z,52.14
2023-01-19T08:19:42.580Z,52.18
2023-01-19T08:20:44.619Z,52.13
2023-01-19T08:21:46.420Z,52.06
2023-01-19T08:22:48.211Z,52.02
2023-01-19T08:23:50.020Z,52.02
2023-01-19T08:24:51.804Z,52.10
2023-01-19T08:25:53.643Z,52.14
2023-01-19T08:26:55.440Z,52.13
2023-01-19T08:27:57.240Z,52.00
2023-01-19T08:28:59.136Z,51.89
2023-01-19T08:30:00.995Z,51.82
2023-01-19T08:31:18.377Z,51.79
2023-01-19T08:32:06.555Z,51.78
2023-01-19T08:33:08.422Z,51.87
2023-01-19T08:34:10.237Z,51.94
2023-01-19T08:35:12.058Z,51.96
2023-01-19T08:36:14.607Z,51.99
2023-01-19T08:37:16.417Z,51.99
2023-01-19T08:38:18.403Z,51.85
2023-01-19T08:39:20.195Z,51.85
2023-01-19T08:40:22.235Z,52.08
2023-01-19T08:41:24.030Z,52.11
2023-01-19T08:42:25.867Z,52.05
2023-01-19T08:43:27.667Z,52.17
2023-01-19T08:44:29.452Z,52.27
2023-01-19T08:45:31.253Z,52.21
2023-01-19T08:46:33.303Z,52.17
2023-01-19T08:47:35.132Z,52.17
2023-01-19T08:48:39.167Z,52.18
2023-01-19T08:49:40.571Z,52.27
2023-01-19T08:50:42.555Z,52.37
2023-01-19T08:51:44.383Z,52.39
2023-01-19T08:52:46.164Z,52.37
2023-01-19T08:53:47.968Z,52.33
2023-01-19T08:54:49.667Z,52.42
2023-01-19T08:55:51.449Z,52.41
2023-01-19T08:56:53.405Z,52.27
2023-01-19T08:57:55.196Z,52.12
2023-01-19T08:59:08.782Z,52.14
2023-01-19T09:00:00.603Z,52.07
2023-01-19T09:01:03.881Z,52.19
2023-01-19T09:02:06.093Z,52.23
2023-01-19T09:03:07.901Z,52.32
2023-01-19T09:04:09.817Z,52.47
2023-01-19T09:05:11.805Z,52.48
2023-01-19T09:06:13.574Z,52.50
2023-01-19T09:07:15.419Z,52.57
2023-01-19T09:08:17.245Z,52.58
2023-01-19T09:09:19.054Z,52.54
2023-01-19T09:10:20.949Z,52.56
2023-01-19T09:11:22.737Z,52.70
2023-01-19T09:12:24.561Z,52.83
2023-01-19T09:13:26.371Z,52.81
2023-01-19T09:14:28.173Z,52.73
2023-01-19T09:15:29.933Z,52.68
2023-01-19T09:16:31.930Z,52.53
2023-01-19T09:17:33.858Z,52.33
2023-01-19T09:18:35.678Z,52.31
2023-01-19T09:19:37.455Z,52.25
2023-01-19T09:20:39.346Z,52.25
2023-01-19T09:21:41.154Z,52.25
2023-01-19T09:22:42.993Z,52.19
2023-01-19T09:23:44.775Z,52.04
2023-01-19T09:24:46.575Z,51.99
2023-01-19T09:25:48.402Z,51.98
2023-01-19T09:26:50.295Z,51.95
2023-01-19T09:27:52.148Z,51.95
2023-01-19T09:28:53.920Z,51.93
2023-01-19T09:29:55.695Z,51.93
2023-01-19T09:30:57.819Z,51.93
2023-01-19T09:31:59.639Z,51.88
2023-01-19T09:33:01.436Z,51.80
2023-01-19T09:34:03.209Z,51.78
2023-01-19T09:35:04.979Z,51.82
2023-01-19T09:36:07.192Z,51.87
2023-01-19T09:37:08.974Z,51.88
2023-01-19T09:38:10.804Z,51.87
2023-01-19T09:39:12.607Z,51.82
2023-01-19T09:40:14.716Z,51.78
2023-01-19T09:41:16.511Z,51.73
2023-01-19T09:42:18.305Z,51.78
2023-01-19T09:43:20.212Z,51.74
2023-01-19T09:44:22.008Z,51.73
2023-01-19T09:45:23.813Z,51.86
2023-01-19T09:46:25.929Z,51.85
2023-01-19T09:47:27.778Z,51.87
2023-01-19T09:48:29.881Z,51.89
2023-01-19T09:49:32.404Z,51.87
2023-01-19T09:50:34.359Z,51.95
2023-01-19T09:51:36.129Z,51.95
2023-01-19T09:52:37.977Z,51.55
2023-01-19T09:53:39.826Z,51.40
2023-01-19T09:54:41.630Z,51.27
2023-01-19T09:55:43.425Z,51.21
2023-01-19T09:56:45.315Z,51.17
2023-01-19T09:57:47.148Z,51.11
2023-01-19T09:58:49.139Z,50.97
2023-01-19T09:59:51.020Z,50.97
2023-01-19T10:00:53.027Z,51.03
2023-01-19T10:01:54.919Z,51.01
2023-01-19T10:02:56.784Z,51.03
2023-01-19T10:03:58.678Z,51.07
2023-01-19T10:05:00.510Z,50.92
2023-01-19T10:06:02.435Z,50.95
2023-01-19T10:07:04.265Z,50.94
2023-01-19T10:08:06.060Z,50.91
2023-01-19T10:09:08.017Z,50.78
2023-01-19T10:10:09.916Z,50.64
2023-01-19T10:11:11.724Z,50.57
2023-01-19T10:12:13.592Z,50.58
2023-01-19T10:13:15.416Z,50.74
2023-01-19T10:14:17.262Z,50.81
2023-01-19T10:15:19.052Z,50.78
2023-01-19T10:16:21.046Z,50.87
2023-01-19T10:17:24.026Z,50.88
2023-01-19T10:18:25.881Z,50.92
2023-01-19T10:19:27.876Z,50.96
2023-01-19T10:20:30.718Z,51.06
2023-01-19T10:21:32.688Z,51.09
2023-01-19T10:22:34.746Z,50.97
2023-01-19T10:23:36.635Z,50.93
2023-01-19T10:24:38.771Z,50.84
2023-01-19T10:25:40.811Z,50.80
2023-01-19T10:26:42.800Z,50.76
2023-01-19T10:27:44.685Z,50.63
2023-01-19T10:28:46.461Z,50.50
2023-01-19T10:29:48.356Z,50.49
2023-01-19T10:30:50.363Z,50.54
2023-01-19T10:31:52.325Z,50.46
2023-01-19T10:32:54.269Z,50.23
2023-01-19T10:33:56.198Z,50.22
2023-01-19T10:34:58.198Z,50.15
2023-01-19T10:36:00.135Z,50.13
2023-01-19T10:37:02.076Z,50.12
2023-01-19T10:38:04.096Z,49.99
2023-01-19T10:39:06.477Z,50.01
2023-01-19T10:40:09.086Z,50.00
2023-01-19T10:41:10.900Z,49.97
2023-01-19T10:42:12.764Z,50.01
2023-01-19T10:43:14.801Z,50.18
2023-01-19T10:44:16.589Z,50.23
2023-01-19T10:45:18.593Z,50.30
2023-01-19T10:46:20.660Z,50.50
2023-01-19T10:47:22.495Z,50.44
2023-01-19T10:48:24.355Z,50.37
2023-01-19T10:49:26.176Z,50.26
2023-01-19T10:50:28.140Z,50.39
2023-01-19T10:51:30.000Z,50.45
2023-01-19T10:52:31.819Z,50.42
2023-01-19T10:53:33.624Z,50.30
2023-01-19T10:54:35.385Z,50.39
2023-01-19T10:55:37.410Z,50.49
2023-01-19T10:56:39.418Z,50.29
2023-01-19T10:57:41.340Z,50.05
2023-01-19T10:58:43.203Z,50.05
2023-01-19T10:59:45.090Z,49.93
2023-01-19T11:00:47.134Z,49.95
2023-01-19T11:01:49.149Z,49.98
2023-01-19T11:02:51.119Z,49.86
2023-01-19T11:03:52.930Z,49.78
2023-01-19T11:04:54.721Z,49.74
2023-01-19T11:05:56.569Z,49.56
2023-01-19T11:06:58.485Z,49.33
2023-01-19T11:08:00.396Z,49.47
2023-01-19T11:09:02.339Z,49.39
2023-01-19T11:10:04.274Z,49.28
2023-01-19T11:11:06.105Z,49.12
2023-01-19T11:12:07.940Z,49.13
2023-01-19T11:13:09.821Z,49.22
2023-01-19T11:14:11.640Z,49.28
2023-01-19T11:15:13.442Z,49.17
2023-01-19T11:16:15.427Z,49.05
2023-01-19T11:17:17.234Z,48.99
2023-01-19T11:18:19.040Z,49.01
2023-01-19T11:19:20.847Z,49.15
2023-01-19T11:20:22.788Z,49.22
2023-01-19T11:21:25.904Z,49.20
2023-01-19T11:22:27.907Z,49.27
2023-01-19T11:23:29.738Z,49.18
2023-01-19T11:24:31.560Z,49.03
2023-01-19T11:25:33.399Z,48.90
2023-01-19T11:26:35.351Z,48.75
2023-01-19T11:27:37.181Z,48.80
2023-01-19T11:28:39.047Z,48.84
2023-01-19T11:29:40.845Z,48.90
2023-01-19T11:30:42.800Z,49.03
2023-01-19T11:31:44.789Z,49.04
2023-01-19T11:32:46.661Z,48.96
2023-01-19T11:33:50.545Z,48.87
2023-01-19T11:34:52.102Z,48.74
2023-01-19T11:35:53.919Z,48.65
2023-01-19T11:36:55.905Z,48.66
2023-01-19T11:37:57.699Z,48.63
2023-01-19T11:38:59.513Z,48.69
2023-01-19T11:40:01.508Z,48.60
2023-01-19T11:41:03.290Z,48.64
2023-01-19T11:42:05.147Z,48.80
2023-01-19T11:43:07.129Z,48.80
2023-01-19T11:44:09.012Z,48.77
2023-01-19T11:45:11.885Z,48.73
2023-01-19T11:46:13.755Z,48.64
2023-01-19T11:47:15.598Z,48.61
2023-01-19T11:48:17.427Z,48.66
2023-01-19T11:49:19.206Z,48.62
2023-01-19T11:50:21.137Z,48.60
2023-01-19T11:51:22.977Z,48.60
2023-01-19T11:52:24.839Z,48.64
2023-01-19T11:53:29.339Z,48.72
2023-01-19T11:54:31.131Z,48.70
2023-01-19T11:55:32.938Z,48.72
2023-01-19T11:56:34.784Z,48.76
2023-01-19T11:57:36.664Z,48.88
2023-01-19T11:58:38.472Z,48.96
2023-01-19T11:59:40.319Z,48.97
2023-01-19T12:00:42.248Z,48.87
2023-01-19T12:01:44.060Z,48.82
2023-01-19T12:02:45.935Z,48.81
2023-01-19T12:03:47.736Z,48.77
2023-01-19T12:04:49.535Z,48.74
2023-01-19T12:05:51.349Z,48.79
2023-01-19T12:06:53.481Z,48.87
2023-01-19T12:07:55.344Z,48.83
2023-01-19T12:08:57.169Z,48.84
2023-01-19T12:09:58.981Z,48.87
2023-01-19T12:11:00.895Z,48.72
2023-01-19T12:12:02.694Z,48.58
2023-01-19T12:13:04.555Z,48.53
2023-01-19T12:14:06.369Z,48.45
2023-01-19T12:15:08.246Z,48.41
2023-01-19T12:16:10.588Z,48.27
2023-01-19T12:17:12.376Z,48.29
2023-01-19T12:18:14.235Z,48.39
2023-01-19T12:19:16.041Z,48.47
2023-01-19T12:20:18.002Z,48.58
2023-01-19T12:21:19.781Z,48.49
2023-01-19T12:22:21.596Z,48.44
2023-01-19T12:23:23.439Z,48.43
2023-01-19T12:24:25.312Z,48.37
2023-01-19T12:25:27.085Z,48.31
2023-01-19T12:26:29.024Z,48.39
2023-01-19T12:27:30.823Z,48.34
2023-01-19T12:28:32.703Z,48.29
2023-01-19T12:29:34.470Z,48.40
2023-01-19T12:30:36.467Z,48.52
2023-01-19T12:31:38.385Z,48.51
2023-01-19T12:32:40.281Z,48.41
2023-01-19T12:33:42.104Z,48.34
2023-01-19T12:34:43.884Z,48.26
2023-01-19T12:35:45.698Z,48.36
2023-01-19T12:36:47.581Z,48.51
2023-01-19T12:37:49.400Z,48.56
2023-01-19T12:38:51.224Z,48.66
2023-01-19T12:39:53.001Z,48.74
2023-01-19T12:40:54.980Z,48.79
2023-01-19T12:41:56.782Z,48.71
2023-01-19T12:42:58.573Z,48.64
2023-01-19T12:44:00.418Z,48.64
2023-01-19T12:45:02.212Z,48.64
2023-01-19T12:46:04.173Z,48.93
2023-01-19T12:47:06.028Z,48.93
2023-01-19T12:48:07.792Z,48.97
2023-01-19T12:49:09.627Z,49.00
2023-01-19T12:50:12.037Z,48.89
2023-01-19T12:51:13.823Z,48.81
2023-01-19T12:52:15.621Z,48.81
2023-01-19T12:53:17.414Z,48.77
2023-01-19T12:54:21.167Z,48.75
2023-01-19T12:55:23.000Z,48.79
2023-01-19T12:56:24.861Z,48.73
2023-01-19T12:57:26.636Z,48.78
2023-01-19T12:58:28.421Z,48.90
2023-01-19T12:59:30.249Z,48.94
2023-01-19T13:00:32.126Z,49.00
2023-01-19T13:01:33.997Z,48.99
2023-01-19T13:02:35.871Z,48.99
2023-01-19T13:03:37.609Z,48.95
2023-01-19T13:04:39.450Z,48.95
2023-01-19T13:05:41.218Z,48.97
2023-01-19T13:06:43.427Z,48.94
2023-01-19T13:07:45.224Z,48.90
2023-01-19T13:08:47.015Z,48.77
2023-01-19T13:09:48.865Z,48.71
2023-01-19T13:10:50.745Z,48.80
2023-01-19T13:12:00.573Z,48.86
2023-01-19T13:12:56.144Z,48.81
2023-01-19T13:13:57.926Z,48.88
2023-01-19T13:15:00.226Z,48.91
2023-01-19T13:16:02.178Z,48.81
2023-01-19T13:17:03.945Z,48.75